createdAt,value
2023-01-19T00:00:44.760Z,3.80
2023-01-19T00:01:47.898Z,4.10
2023-01-19T00:02:51.023Z,3.33
2023-01-19T00:03:54.037Z,4.28
2023-01-19T00:04:56.959Z,4.40
2023-01-19T00:06:04.742Z,3.58
2023-01-19T00:07:07.997Z,3.87
2023-01-19T00:08:15.313Z,3.75
2023-01-19T00:09:18.695Z,4.03
2023-01-19T00:10:21.740Z,3.90
2023-01-19T00:11:24.861Z,3.97
2023-01-19T00:12:27.747Z,4.43
2023-01-19T00:13:30.907Z,4.15
2023-01-19T00:14:35.058Z,4.28
2023-01-19T00:15:38.014Z,3.62
2023-01-19T00:16:41.296Z,3.62
2023-01-19T00:17:44.101Z,4.00
2023-01-19T00:18:47.062Z,3.92
2023-01-19T00:19:49.978Z,3.90
2023-01-19T00:20:52.945Z,3.58
2023-01-19T00:21:56.579Z,3.58
2023-01-19T00:23:00.079Z,3.08
2023-01-19T00:24:03.749Z,3.22
2023-01-19T00:25:07.013Z,2.50
2023-01-19T00:26:14.454Z,2.80
2023-01-19T00:27:17.906Z,3.05
2023-01-19T00:28:23.633Z,3.67
2023-01-19T00:29:27.989Z,3.08
2023-01-19T00:30:30.949Z,2.90
2023-01-19T00:31:36.593Z,2.58
2023-01-19T00:32:39.620Z,3.15
2023-01-19T00:33:42.859Z,2.75
2023-01-19T00:34:49.692Z,3.00
2023-01-19T00:35:53.264Z,2.70
2023-01-19T00:36:56.094Z,3.15
2023-01-19T00:37:59.863Z,2.90
2023-01-19T00:39:02.951Z,3.10
2023-01-19T00:40:06.693Z,2.87
2023-01-19T00:41:09.811Z,3.00
2023-01-19T00:42:31.669Z,2.25
2023-01-19T00:43:34.655Z,2.37
2023-01-19T00:44:37.654Z,2.00
2023-01-19T00:45:40.735Z,2.42
2023-01-19T00:46:47.223Z,2.47
2023-01-19T00:47:57.509Z,2.28
2023-01-19T00:49:00.663Z,2.70
2023-01-19T00:50:03.859Z,2.80
2023-01-19T00:51:06.826Z,2.45
2023-01-19T00:52:09.951Z,2.67
2023-01-19T00:53:13.937Z,2.45
2023-01-19T00:54:17.054Z,2.40
2023-01-19T00:55:20.330Z,2.47
2023-01-19T00:56:23.584Z,2.40
2023-01-19T00:57:27.341Z,2.87
2023-01-19T00:58:30.255Z,2.97
2023-01-19T00:59:33.398Z,2.75
2023-01-19T01:00:36.473Z,2.50
2023-01-19T01:01:45.526Z,2.20
2023-01-19T01:02:51.671Z,2.35
2023-01-19T01:03:56.100Z,1.87
2023-01-19T01:05:03.264Z,1.75
2023-01-19T01:06:08.837Z,1.70
2023-01-19T01:07:11.980Z,1.98
2023-01-19T01:08:14.907Z,1.83
2023-01-19T01:09:18.034Z,2.08
2023-01-19T01:10:24.292Z,1.40
2023-01-19T01:11:27.292Z,1.27
2023-01-19T01:12:30.410Z,1.50
2023-01-19T01:13:33.709Z,1.55
2023-01-19T01:14:37.913Z,1.87
2023-01-19T01:15:41.202Z,1.70
2023-01-19T01:16:44.284Z,1.90
2023-01-19T01:17:53.429Z,1.50
2023-01-19T01:18:56.302Z,1.40
2023-01-19T01:19:59.231Z,1.20
2023-01-19T01:21:07.425Z,1.37
2023-01-19T01:22:10.801Z,1.48
2023-01-19T01:23:14.505Z,1.30
2023-01-19T01:24:19.101Z,1.40
2023-01-19T01:25:24.029Z,1.30
2023-01-19T01:26:27.883Z,1.40
2023-01-19T01:27:30.876Z,1.10
2023-01-19T01:28:34.147Z,1.40
2023-01-19T01:29:37.191Z,0.90
2023-01-19T01:30:41.320Z,0.60
2023-01-19T01:31:44.289Z,0.95
2023-01-19T01:32:47.340Z,0.70
2023-01-19T01:33:50.203Z,0.80
2023-01-19T01:34:53.195Z,0.65
2023-01-19T01:35:55.987Z,0.88
2023-01-19T01:36:58.925Z,0.70
2023-01-19T01:38:02.011Z,0.52
2023-01-19T01:39:05.381Z,0.65
2023-01-19T01:40:13.791Z,0.50
2023-01-19T01:41:17.059Z,0.62
2023-01-19T01:42:25.735Z,0.70
2023-01-19T01:43:49.714Z,0.60
2023-01-19T01:44:56.233Z,0.80
2023-01-19T01:45:59.299Z,0.70
2023-01-19T01:47:03.186Z,0.65
2023-01-19T01:48:28.351Z,0.70
2023-01-19T01:49:31.933Z,0.68
2023-01-19T01:50:39.558Z,0.90
2023-01-19T01:51:48.977Z,0.60
2023-01-19T01:53:08.118Z,0.80
2023-01-19T01:54:20.573Z,0.90
2023-01-19T01:55:25.628Z,0.75
2023-01-19T01:56:35.333Z,0.90
2023-01-19T01:57:42.432Z,0.75
2023-01-19T01:58:46.325Z,1.00
2023-01-19T01:59:50.912Z,1.08
2023-01-19T02:01:16.208Z,0.95
2023-01-19T02:02:44.508Z,0.80
2023-01-19T02:03:47.665Z,0.80
2023-01-19T02:05:00.012Z,0.90
2023-01-19T02:06:07.432Z,1.02
2023-01-19T02:07:35.293Z,0.95
2023-01-19T02:09:12.468Z,1.10
2023-01-19T02:10:34.342Z,0.80
2023-01-19T02:13:18.588Z,0.98
2023-01-19T02:14:21.859Z,0.88
2023-01-19T02:15:24.662Z,0.98
2023-01-19T02:16:27.689Z,1.00
2023-01-19T02:17:30.742Z,0.80
2023-01-19T02:18:35.424Z,1.00
2023-01-19T02:19:43.427Z,0.60
2023-01-19T02:21:00.075Z,0.80
2023-01-19T02:22:16.995Z,0.98
2023-01-19T02:23:33.337Z,0.90
2023-01-19T02:24:36.626Z,0.90
2023-01-19T02:25:40.791Z,0.62
2023-01-19T02:26:47.250Z,0.82
2023-01-19T02:27:51.304Z,1.20
2023-01-19T02:28:59.294Z,0.77
2023-01-19T02:30:03.944Z,0.70
2023-01-19T02:31:07.313Z,0.80
2023-01-19T02:32:10.419Z,0.80
2023-01-19T02:33:13.615Z,0.90
2023-01-19T02:34:19.497Z,0.80
2023-01-19T02:35:23.560Z,0.93
2023-01-19T02:36:32.103Z,0.57
2023-01-19T02:37:37.830Z,0.60
2023-01-19T02:38:44.490Z,0.70
2023-01-19T02:39:59.865Z,0.60
2023-01-19T02:41:05.439Z,0.68
2023-01-19T02:42:34.335Z,0.50
2023-01-19T02:43:40.371Z,0.70
2023-01-19T02:44:47.362Z,0.50
2023-01-19T02:45:50.983Z,0.60
2023-01-19T02:46:55.290Z,0.60
2023-01-19T02:47:58.343Z,0.60
2023-01-19T02:49:01.724Z,0.50
2023-01-19T02:50:04.871Z,0.70
2023-01-19T02:51:24.854Z,0.60
2023-01-19T02:52:28.353Z,0.57
2023-01-19T02:53:57.174Z,0.65
2023-01-19T02:55:23.620Z,0.47
2023-01-19T02:56:57.948Z,0.60
2023-01-19T02:58:28.681Z,0.50
2023-01-19T02:59:40.346Z,0.73
2023-01-19T03:00:54.822Z,0.40
2023-01-19T03:02:24.737Z,0.50
2023-01-19T03:04:01.192Z,0.50
2023-01-19T03:05:30.662Z,0.40
2023-01-19T03:06:46.869Z,0.73
2023-01-19T03:08:09.600Z,0.70
2023-01-19T03:09:23.558Z,0.50
2023-01-19T03:10:33.163Z,0.43
2023-01-19T03:11:42.363Z,0.65
2023-01-19T03:12:51.851Z,0.50
2023-01-19T03:14:03.757Z,0.57
2023-01-19T03:15:19.893Z,0.52
2023-01-19T03:16:34.970Z,0.40
2023-01-19T03:17:39.016Z,0.43
2023-01-19T03:18:46.750Z,0.40
2023-01-19T03:19:52.111Z,0.35
2023-01-19T03:21:00.143Z,0.60
2023-01-19T03:22:07.669Z,0.50
2023-01-19T03:23:13.058Z,0.50
2023-01-19T03:24:18.742Z,0.50
2023-01-19T03:25:24.778Z,0.30
2023-01-19T03:26:32.237Z,0.30
2023-01-19T03:27:41.172Z,0.40
2023-01-19T03:28:45.816Z,0.47
2023-01-19T03:29:53.663Z,0.40
2023-01-19T03:31:04.757Z,0.40
2023-01-19T03:32:13.851Z,0.40
2023-01-19T03:33:26.641Z,0.30
2023-01-19T03:34:30.109Z,0.20
2023-01-19T03:35:40.222Z,0.30
2023-01-19T03:36:51.832Z,0.40
2023-01-19T03:37:58.356Z,0.45
2023-01-19T03:39:05.465Z,0.40
2023-01-19T03:40:09.728Z,0.30
2023-01-19T03:41:17.095Z,0.32
2023-01-19T03:42:20.679Z,0.32
2023-01-19T03:43:24.956Z,0.50
2023-01-19T03:44:30.118Z,0.40
2023-01-19T03:45:34.662Z,0.47
2023-01-19T03:46:39.367Z,0.22
2023-01-19T03:47:42.584Z,0.40
2023-01-19T03:48:46.479Z,0.30
2023-01-19T03:49:52.396Z,0.28
2023-01-19T03:50:55.847Z,0.28
2023-01-19T03:51:59.581Z,0.40
2023-01-19T03:53:12.351Z,0.40
2023-01-19T03:54:15.671Z,0.20
2023-01-19T03:55:18.761Z,0.20
2023-01-19T03:56:26.096Z,0.52
2023-01-19T03:57:29.171Z,0.25
2023-01-19T03:58:32.249Z,0.30
2023-01-19T03:59:35.345Z,0.30
2023-01-19T04:00:39.170Z,0.20
2023-01-19T04:01:42.112Z,0.40
2023-01-19T04:02:45.177Z,0.20
2023-01-19T04:03:48.087Z,0.30
2023-01-19T04:04:51.307Z,0.30
2023-01-19T04:05:56.751Z,0.40
2023-01-19T04:06:59.827Z,0.40
2023-01-19T04:08:02.774Z,0.30
2023-01-19T04:09:06.185Z,0.20
2023-01-19T04:10:12.931Z,0.28
2023-01-19T04:11:19.238Z,0.40
2023-01-19T04:12:22.327Z,0.40
2023-01-19T04:13:28.439Z,0.35
2023-01-19T04:14:31.440Z,0.40
2023-01-19T04:15:34.455Z,0.30
2023-01-19T04:16:37.359Z,0.20
2023-01-19T04:17:41.041Z,0.40
2023-01-19T04:18:43.911Z,0.40
2023-01-19T04:19:46.818Z,0.30
2023-01-19T04:20:49.888Z,0.30
2023-01-19T04:21:53.513Z,0.40
2023-01-19T04:23:01.383Z,0.25
2023-01-19T04:24:04.847Z,0.40
2023-01-19T04:25:08.679Z,0.45
2023-01-19T04:26:12.046Z,0.40
2023-01-19T04:27:16.781Z,0.60
2023-01-19T04:28:19.780Z,0.40
2023-01-19T04:29:22.710Z,0.32
2023-01-19T04:30:27.952Z,0.50
2023-01-19T04:31:31.795Z,0.40
2023-01-19T04:32:34.674Z,0.55
2023-01-19T04:33:37.576Z,0.60
2023-01-19T04:34:40.676Z,0.40
2023-01-19T04:35:45.433Z,0.40
2023-01-19T04:36:51.603Z,0.35
2023-01-19T04:37:54.745Z,0.50
2023-01-19T04:38:57.885Z,0.47
2023-01-19T04:40:01.167Z,0.52
2023-01-19T04:41:04.527Z,0.60
2023-01-19T04:42:07.863Z,0.30
2023-01-19T04:43:10.704Z,0.40
2023-01-19T04:44:13.630Z,0.50
2023-01-19T04:45:17.677Z,0.50
2023-01-19T04:46:20.615Z,0.40
2023-01-19T04:47:23.500Z,0.50
2023-01-19T04:48:26.733Z,0.60
2023-01-19T04:49:29.700Z,0.37
2023-01-19T04:50:33.359Z,0.40
2023-01-19T04:51:36.722Z,0.30
2023-01-19T04:52:39.750Z,0.30
2023-01-19T04:53:42.854Z,0.32
2023-01-19T04:54:45.704Z,0.28
2023-01-19T04:55:52.697Z,0.20
2023-01-19T04:56:55.818Z,0.40
2023-01-19T04:57:58.899Z,0.20
2023-01-19T04:59:02.189Z,0.35
2023-01-19T05:00:09.614Z,0.35
2023-01-19T05:01:12.718Z,0.22
2023-01-19T05:02:15.793Z,0.15
2023-01-19T05:03:19.626Z,0.20
2023-01-19T05:04:22.855Z,0.50
2023-01-19T05:05:27.360Z,0.30
2023-01-19T05:06:30.372Z,0.40
2023-01-19T05:07:33.177Z,0.35
2023-01-19T05:08:36.640Z,0.43
2023-01-19T05:09:39.510Z,0.40
2023-01-19T05:10:42.388Z,0.40
2023-01-19T05:11:45.307Z,0.40
2023-01-19T05:12:48.324Z,0.55
2023-01-19T05:13:52.131Z,0.55
2023-01-19T05:14:55.042Z,0.40
2023-01-19T05:15:57.932Z,0.37
2023-01-19T05:17:03.147Z,0.45
2023-01-19T05:18:06.243Z,0.32
2023-01-19T05:19:09.191Z,0.20
2023-01-19T05:20:16.589Z,0.62
2023-01-19T05:21:19.546Z,0.77
2023-01-19T05:22:22.476Z,0.90
2023-01-19T05:23:25.437Z,1.17
2023-01-19T05:24:28.349Z,1.30
2023-01-19T05:25:31.477Z,1.05
2023-01-19T05:26:34.693Z,0.98
2023-01-19T05:27:38.877Z,1.10
2023-01-19T05:28:42.311Z,0.60
2023-01-19T05:29:45.182Z,0.70
2023-01-19T05:30:50.172Z,0.60
2023-01-19T05:31:57.020Z,0.80
2023-01-19T05:33:00.418Z,0.60
2023-01-19T05:34:05.419Z,0.88
2023-01-19T05:35:08.745Z,0.50
2023-01-19T05:36:11.812Z,0.70
2023-01-19T05:37:14.769Z,0.40
2023-01-19T05:38:20.943Z,0.30
2023-01-19T05:39:32.510Z,0.20
2023-01-19T05:40:35.686Z,0.20
2023-01-19T05:41:38.777Z,0.20
2023-01-19T05:42:41.647Z,0.37
2023-01-19T05:43:44.614Z,0.40
2023-01-19T05:44:47.634Z,0.40
2023-01-19T05:45:50.686Z,0.40
2023-01-19T05:46:53.771Z,0.40
2023-01-19T05:47:57.734Z,0.40
2023-01-19T05:49:04.510Z,0.40
2023-01-19T05:50:07.992Z,0.32
2023-01-19T05:51:10.923Z,0.40
2023-01-19T05:52:13.837Z,0.37
2023-01-19T05:53:17.743Z,0.60
2023-01-19T05:54:20.860Z,0.77
2023-01-19T05:55:27.230Z,0.65
2023-01-19T05:56:30.518Z,0.60
2023-01-19T05:57:33.667Z,0.70
2023-01-19T05:58:39.614Z,0.57
2023-01-19T05:59:42.734Z,0.60
2023-01-19T06:00:45.672Z,0.40
2023-01-19T06:01:48.625Z,0.60
2023-01-19T06:02:51.611Z,0.93
2023-01-19T06:03:55.132Z,0.70
2023-01-19T06:04:58.142Z,0.73
2023-01-19T06:06:02.006Z,0.65
2023-01-19T06:07:07.142Z,0.70
2023-01-19T06:08:10.107Z,0.82
2023-01-19T06:09:12.960Z,0.70
2023-01-19T06:10:16.130Z,0.77
2023-01-19T06:11:19.101Z,0.80
2023-01-19T06:12:22.248Z,0.70
2023-01-19T06:13:25.073Z,0.93
2023-01-19T06:14:28.178Z,0.70
2023-01-19T06:15:30.954Z,0.80
2023-01-19T06:16:34.764Z,0.70
2023-01-19T06:17:37.998Z,0.65
2023-01-19T06:18:41.355Z,0.70
2023-01-19T06:19:44.300Z,0.85
2023-01-19T06:20:47.215Z,0.60
2023-01-19T06:21:52.547Z,0.82
2023-01-19T06:22:58.019Z,1.00
2023-01-19T06:24:00.914Z,0.80
2023-01-19T06:25:03.922Z,0.82
2023-01-19T06:26:06.904Z,0.70
2023-01-19T06:27:11.603Z,1.00
2023-01-19T06:28:14.533Z,1.00
2023-01-19T06:29:18.631Z,1.25
2023-01-19T06:30:22.309Z,1.23
2023-01-19T06:31:25.510Z,1.00
2023-01-19T06:32:28.880Z,1.20
2023-01-19T06:33:34.276Z,1.45
2023-01-19T06:34:37.429Z,1.45
2023-01-19T06:35:44.191Z,1.37
2023-01-19T06:36:47.374Z,1.67
2023-01-19T06:37:50.525Z,1.60
2023-01-19T06:38:55.591Z,1.48
2023-01-19T06:39:58.528Z,1.70
2023-01-19T06:41:05.097Z,1.73
2023-01-19T06:42:08.559Z,1.70
2023-01-19T06:43:15.681Z,1.52
2023-01-19T06:44:18.546Z,2.20
2023-01-19T06:45:22.298Z,2.37
2023-01-19T06:46:26.333Z,2.40
2023-01-19T06:47:30.875Z,2.37
2023-01-19T06:48:34.277Z,2.33
2023-01-19T06:49:37.162Z,2.20
2023-01-19T06:50:41.017Z,2.67
2023-01-19T06:51:43.938Z,2.70
2023-01-19T06:52:51.134Z,2.35
2023-01-19T06:53:54.052Z,2.62
2023-01-19T06:54:56.936Z,2.47
2023-01-19T06:56:01.743Z,2.80
2023-01-19T06:57:05.362Z,2.75
2023-01-19T06:58:09.239Z,2.67
2023-01-19T06:59:12.359Z,2.60
2023-01-19T07:00:16.023Z,3.67
2023-01-19T07:01:19.555Z,2.58
2023-01-19T07:02:26.269Z,2.58
2023-01-19T07:03:30.542Z,2.30
2023-01-19T07:04:34.219Z,2.90
2023-01-19T07:05:37.395Z,2.70
2023-01-19T07:06:40.654Z,2.80
2023-01-19T07:07:46.387Z,3.20
2023-01-19T07:08:49.266Z,3.20
2023-01-19T07:09:54.133Z,3.08
2023-01-19T07:11:26.479Z,2.95
2023-01-19T07:12:27.385Z,2.78
2023-01-19T07:13:31.023Z,2.80
2023-01-19T07:14:34.287Z,2.70
2023-01-19T07:15:37.942Z,3.28
2023-01-19T07:16:41.042Z,3.08
2023-01-19T07:17:44.342Z,3.87
2023-01-19T07:18:52.600Z,4.10
2023-01-19T07:19:55.787Z,4.70
2023-01-19T07:20:59.475Z,5.18
2023-01-19T07:22:03.401Z,4.20
2023-01-19T07:23:06.410Z,4.00
2023-01-19T07:24:09.559Z,3.92
2023-01-19T07:25:13.665Z,3.42
2023-01-19T07:26:18.910Z,3.90
2023-01-19T07:27:22.276Z,4.53
2023-01-19T07:28:25.333Z,4.40
2023-01-19T07:29:28.724Z,3.45
2023-01-19T07:30:31.794Z,4.00
2023-01-19T07:31:34.928Z,4.32
2023-01-19T07:32:38.620Z,4.30
2023-01-19T07:33:41.642Z,4.30
2023-01-19T07:34:44.551Z,3.60
2023-01-19T07:35:51.194Z,3.92
2023-01-19T07:36:55.849Z,4.00
2023-01-19T07:37:59.385Z,4.12
2023-01-19T07:39:02.379Z,4.03
2023-01-19T07:40:06.171Z,4.60
2023-01-19T07:41:11.160Z,4.70
2023-01-19T07:42:14.304Z,4.78
2023-01-19T07:43:17.353Z,4.72
2023-01-19T07:44:20.753Z,4.37
2023-01-19T07:45:23.591Z,4.75
2023-01-19T07:46:26.860Z,5.03
2023-01-19T07:47:30.255Z,5.00
2023-01-19T07:48:33.479Z,4.20
2023-01-19T07:49:36.810Z,4.47
2023-01-19T07:50:39.987Z,4.40
2023-01-19T07:51:44.303Z,4.30
2023-01-19T07:52:48.469Z,4.60
2023-01-19T07:53:51.655Z,4.28
2023-01-19T07:54:54.604Z,4.53
2023-01-19T07:55:58.170Z,5.12
2023-01-19T07:57:01.663Z,4.68
2023-01-19T07:58:07.509Z,4.62
2023-01-19T07:59:11.426Z,4.60
2023-01-19T08:00:14.748Z,4.70
2023-01-19T08:01:17.725Z,3.92
2023-01-19T08:02:20.932Z,4.37
2023-01-19T08:03:24.003Z,4.37
2023-01-19T08:04:27.980Z,4.25
2023-01-19T08:05:31.759Z,4.18
2023-01-19T08:06:37.563Z,4.47
2023-01-19T08:07:41.376Z,4.37
2023-01-19T08:08:44.425Z,4.65
2023-01-19T08:09:47.400Z,4.55
2023-01-19T08:10:51.951Z,4.68
2023-01-19T08:11:54.795Z,4.97
2023-01-19T08:12:59.545Z,4.68
2023-01-19T08:14:02.821Z,4.68
2023-01-19T08:15:06.847Z,4.47
2023-01-19T08:16:10.645Z,5.37
2023-01-19T08:17:14.269Z,5.65
2023-01-19T08:18:18.672Z,4.97
2023-01-19T08:19:21.775Z,4.68
2023-01-19T08:20:26.319Z,4.95
2023-01-19T08:21:29.335Z,5.05
2023-01-19T08:22:32.264Z,5.20
2023-01-19T08:23:35.340Z,5.95
2023-01-19T08:24:38.613Z,5.90
2023-01-19T08:25:44.759Z,5.93
2023-01-19T08:26:51.441Z,5.25
2023-01-19T08:27:55.741Z,5.78
2023-01-19T08:29:01.971Z,5.97
2023-01-19T08:30:05.840Z,6.35
2023-01-19T08:31:19.646Z,6.30
2023-01-19T08:32:24.650Z,5.85
2023-01-19T08:33:27.671Z,6.90
2023-01-19T08:34:34.025Z,7.20
2023-01-19T08:35:40.592Z,7.40
2023-01-19T08:36:43.992Z,7.18
2023-01-19T08:37:47.436Z,7.22
2023-01-19T08:38:50.388Z,7.00
2023-01-19T08:39:54.157Z,8.30
2023-01-19T08:41:00.328Z,7.47
2023-01-19T08:42:04.148Z,8.55
2023-01-19T08:43:13.452Z,7.20
2023-01-19T08:44:17.140Z,8.85
2023-01-19T08:45:20.268Z,7.70
2023-01-19T08:46:23.304Z,8.05
2023-01-19T08:47:26.236Z,8.45
2023-01-19T08:48:29.685Z,8.63
2023-01-19T08:49:32.781Z,8.43
2023-01-19T08:50:35.847Z,8.77
2023-01-19T08:51:38.685Z,8.40
2023-01-19T08:52:41.763Z,8.73
2023-01-19T08:53:44.780Z,9.15
2023-01-19T08:54:47.755Z,9.15
2023-01-19T08:55:55.156Z,9.15
2023-01-19T08:56:58.503Z,8.88
2023-01-19T08:58:02.383Z,9.60
2023-01-19T08:59:10.812Z,9.13
2023-01-19T09:00:15.560Z,8.45
2023-01-19T09:01:20.725Z,8.68
2023-01-19T09:02:23.919Z,9.60
2023-01-19T09:03:27.076Z,9.55
2023-01-19T09:04:30.173Z,9.32
2023-01-19T09:05:35.993Z,9.40
2023-01-19T09:06:38.948Z,9.48
2023-01-19T09:07:45.863Z,9.30
2023-01-19T09:08:50.212Z,10.25
2023-01-19T09:09:54.119Z,9.35
2023-01-19T09:10:57.411Z,9.50
2023-01-19T09:12:00.275Z,9.45
2023-01-19T09:13:07.949Z,10.00
2023-01-19T09:14:11.036Z,9.48
2023-01-19T09:15:14.334Z,10.43
2023-01-19T09:17:26.337Z,9.77
2023-01-19T09:18:29.763Z,9.55
2023-01-19T09:19:33.778Z,9.30
2023-01-19T09:20:39.320Z,8.70
2023-01-19T09:21:42.226Z,9.15
2023-01-19T09:22:45.827Z,10.50
2023-01-19T09:23:49.600Z,9.40
2023-01-19T09:24:52.753Z,9.73
2023-01-19T09:26:02.466Z,9.90
2023-01-19T09:27:05.635Z,10.63
2023-01-19T09:28:11.252Z,8.65
2023-01-19T09:29:14.716Z,8.50
2023-01-19T09:30:19.331Z,8.15
2023-01-19T09:31:22.671Z,7.40
2023-01-19T09:32:25.935Z,7.87
2023-01-19T09:33:29.692Z,7.65
2023-01-19T09:34:32.757Z,7.47
2023-01-19T09:35:35.710Z,7.40
2023-01-19T09:36:42.600Z,7.82
2023-01-19T09:37:48.880Z,7.15
2023-01-19T09:38:51.982Z,7.28
2023-01-19T09:39:55.194Z,6.60
2023-01-19T09:40:59.339Z,6.75
2023-01-19T09:42:14.005Z,6.50
2023-01-19T09:43:22.930Z,7.05
2023-01-19T09:44:30.209Z,6.10
2023-01-19T09:45:59.139Z,6.60
2023-01-19T09:47:15.097Z,6.90
2023-01-19T09:48:36.676Z,6.35
2023-01-19T09:49:44.972Z,5.70
2023-01-19T09:50:49.714Z,6.90
2023-01-19T09:51:52.653Z,6.25
2023-01-19T09:53:03.083Z,6.00
2023-01-19T09:54:14.980Z,6.55
2023-01-19T09:55:26.385Z,6.35
2023-01-19T09:56:30.653Z,5.68
2023-01-19T09:57:34.900Z,6.47
2023-01-19T09:58:37.948Z,6.30
2023-01-19T09:59:44.006Z,5.65
2023-01-19T10:00:53.664Z,5.82
2023-01-19T10:02:24.159Z,5.90
2023-01-19T10:03:27.185Z,5.78
2023-01-19T10:04:49.297Z,5.53
2023-01-19T10:05:54.926Z,5.07
2023-01-19T10:07:09.297Z,5.35
2023-01-19T10:08:32.458Z,5.30
2023-01-19T10:09:49.532Z,6.07
2023-01-19T10:10:58.279Z,6.32
2023-01-19T10:12:11.188Z,5.80
2023-01-19T10:13:26.374Z,5.95
2023-01-19T10:14:43.319Z,6.15
2023-01-19T10:16:15.409Z,5.82
2023-01-19T10:17:43.657Z,6.25
2023-01-19T10:18:52.261Z,6.78
2023-01-19T10:19:58.969Z,6.47
2023-01-19T10:21:02.635Z,6.28
2023-01-19T10:22:36.265Z,6.85
2023-01-19T10:23:48.524Z,5.97
2023-01-19T10:25:00.502Z,6.75
2023-01-19T10:26:10.869Z,5.72
2023-01-19T10:27:26.005Z,6.05
2023-01-19T10:28:50.336Z,5.07
2023-01-19T10:29:53.428Z,5.82
2023-01-19T10:30:56.613Z,6.00
2023-01-19T10:32:10.475Z,5.22
2023-01-19T10:33:15.568Z,5.55
2023-01-19T10:34:23.014Z,5.22
2023-01-19T10:35:26.374Z,5.72
2023-01-19T10:36:40.574Z,5.55
2023-01-19T10:37:45.006Z,5.43
2023-01-19T10:38:48.719Z,5.85
2023-01-19T10:40:01.499Z,5.95
2023-01-19T10:41:12.256Z,4.97
2023-01-19T10:42:17.483Z,4.97
2023-01-19T10:43:35.407Z,5.20
2023-01-19T10:44:38.716Z,5.37
2023-01-19T10:45:42.018Z,5.40
2023-01-19T10:46:48.486Z,4.82
2023-01-19T10:47:55.151Z,5.10
2023-01-19T10:48:58.242Z,5.18
2023-01-19T10:50:23.963Z,5.25
2023-01-19T10:51:27.384Z,4.97
2023-01-19T10:52:37.638Z,4.78
2023-01-19T10:53:54.632Z,4.95
2023-01-19T10:55:00.257Z,5.03
2023-01-19T10:56:29.970Z,4.97
2023-01-19T10:57:39.205Z,4.72
2023-01-19T10:58:42.538Z,4.65
2023-01-19T10:59:45.537Z,4.68
2023-01-19T11:00:48.769Z,4.78
2023-01-19T11:02:07.450Z,4.93
2023-01-19T11:03:30.940Z,4.87
2023-01-19T11:04:34.188Z,5.00
2023-01-19T11:05:37.471Z,5.43
2023-01-19T11:06:40.380Z,6.05
2023-01-19T11:07:44.504Z,6.68
2023-01-19T11:08:51.700Z,6.57
2023-01-19T11:10:16.655Z,6.90
2023-01-19T11:11:21.936Z,7.10
2023-01-19T11:12:25.109Z,6.97
2023-01-19T11:13:28.552Z,7.80
2023-01-19T11:14:32.076Z,6.93
2023-01-19T11:15:36.782Z,7.32
2023-01-19T11:16:40.721Z,7.53
2023-01-19T11:17:48.587Z,8.15
2023-01-19T11:18:57.023Z,7.22
2023-01-19T11:20:02.632Z,7.65
2023-01-19T11:21:08.052Z,7.05
2023-01-19T11:22:25.028Z,7.25
2023-01-19T11:23:31.133Z,7.68
2023-01-19T11:24:34.086Z,7.93
2023-01-19T11:25:37.559Z,7.12
2023-01-19T11:26:48.305Z,8.02
2023-01-19T11:27:52.378Z,7.82
2023-01-19T11:28:58.094Z,7.78
2023-01-19T11:30:17.818Z,7.87
2023-01-19T11:31:31.483Z,8.00
2023-01-19T11:32:37.420Z,7.90
2023-01-19T11:33:50.490Z,7.75
2023-01-19T11:34:53.874Z,8.63
2023-01-19T11:36:06.335Z,8.35
2023-01-19T11:37:18.631Z,8.00
2023-01-19T11:38:23.924Z,8.15
2023-01-19T11:39:30.382Z,8.68
2023-01-19T11:40:35.609Z,8.20
2023-01-19T11:41:40.712Z,8.60
2023-01-19T11:42:44.828Z,8.20
2023-01-19T11:43:55.357Z,8.30
2023-01-19T11:45:20.092Z,9.05
2023-01-19T11:46:27.071Z,7.95
2023-01-19T11:47:53.011Z,8.27
2023-01-19T11:49:15.698Z,9.13
2023-01-19T11:50:39.298Z,9.10
2023-01-19T11:52:19.909Z,8.73
2023-01-19T11:53:26.016Z,8.70
2023-01-19T11:54:46.810Z,8.88
2023-01-19T11:56:06.891Z,9.25
2023-01-19T11:57:17.460Z,8.80
2023-01-19T11:58:20.762Z,8.50
2023-01-19T11:59:25.500Z,9.55
2023-01-19T12:00:36.941Z,9.20
2023-01-19T12:02:53.840Z,9.00
2023-01-19T12:04:02.259Z,8.88
2023-01-19T12:05:11.273Z,8.98
2023-01-19T12:06:29.879Z,9.98
2023-01-19T12:07:36.726Z,9.52
2023-01-19T12:08:47.349Z,9.75
2023-01-19T12:09:57.243Z,9.82
2023-01-19T12:11:02.440Z,9.43
2023-01-19T12:12:10.999Z,8.90
2023-01-19T12:13:25.178Z,8.95
2023-01-19T12:14:40.330Z,8.93
2023-01-19T12:15:45.281Z,9.30
2023-01-19T12:16:51.608Z,8.95
2023-01-19T12:18:02.871Z,10.18
2023-01-19T12:19:24.991Z,9.45
2023-01-19T12:20:38.351Z,8.25
2023-01-19T12:21:42.173Z,9.18
2023-01-19T12:22:51.087Z,8.57
2023-01-19T12:23:59.785Z,9.73
2023-01-19T12:25:14.537Z,9.75
2023-01-19T12:26:25.187Z,9.95
2023-01-19T12:27:42.766Z,9.68
2023-01-19T12:28:52.250Z,8.70
2023-01-19T12:29:55.604Z,9.30
2023-01-19T12:31:00.622Z,9.75
2023-01-19T12:32:18.007Z,8.93
2023-01-19T12:33:34.763Z,9.43
2023-01-19T12:34:45.255Z,9.50
2023-01-19T12:36:26.676Z,9.32
2023-01-19T12:37:42.224Z,9.38
2023-01-19T12:38:54.149Z,9.15
2023-01-19T12:40:18.706Z,10.65
2023-01-19T12:41:23.724Z,9.20
2023-01-19T12:42:27.701Z,10.50
2023-01-19T12:43:30.714Z,9.52
2023-01-19T12:44:34.567Z,9.57
2023-01-19T12:45:40.055Z,9.50
2023-01-19T12:46:49.420Z,10.05
2023-01-19T12:47:56.705Z,10.07
2023-01-19T12:49:24.222Z,10.20
2023-01-19T12:50:29.961Z,10.43
2023-01-19T12:51:33.434Z,9.35
2023-01-19T12:52:58.928Z,10.30
2023-01-19T12:54:07.057Z,9.63
2023-01-19T12:55:13.077Z,10.18
2023-01-19T12:56:24.255Z,9.93
2023-01-19T12:57:51.163Z,10.60
2023-01-19T12:58:55.782Z,10.80
2023-01-19T13:00:06.346Z,9.88
2023-01-19T13:01:19.367Z,9.88
2023-01-19T13:02:27.238Z,10.48
2023-01-19T13:03:30.364Z,10.35
2023-01-19T13:04:34.414Z,10.18
2023-01-19T13:05:40.250Z,11.05
2023-01-19T13:07:07.458Z,11.55
2023-01-19T13:08:10.417Z,9.43
2023-01-19T13:09:34.521Z,10.13
2023-01-19T13:11:14.064Z,10.88
2023-01-19T13:12:22.805Z,8.95
2023-01-19T13:13:54.845Z,9.88
2023-01-19T13:15:35.962Z,8.00
2023-01-19T13:16:39.147Z,10.27
2023-01-19T13:18:01.531Z,10.20
2023-01-19T13:19:16.487Z,10.82
2023-01-19T13:20:27.387Z,10.45
2023-01-19T13:21:34.769Z,9.95
2023-01-19T13:22:49.877Z,10.10
2023-01-19T13:24:00.347Z,10.93
2023-01-19T13:25:14.316Z,11.57
2023-01-19T13:26:20.423Z,9.60
2023-01-19T13:27:28.693Z,11.27
2023-01-19T13:28:47.211Z,10.70
2023-01-19T13:29:51.509Z,10.82
2023-01-19T13:30:58.412Z,10.80
2023-01-19T13:32:25.136Z,10.32
2023-01-19T13:33:33.967Z,11.38
2023-01-19T13:34:43.549Z,11.85
2023-01-19T13:35:58.993Z,10.98
2023-01-19T13:37:02.297Z,11.95
2023-01-19T13:38:06.183Z,11.15
2023-01-19T13:39:18.570Z,11.52
2023-01-19T13:40:30.528Z,12.65
2023-01-19T13:41:37.925Z,11.85
2023-01-19T13:42:43.027Z,12.55
2023-01-19T13:43:47.752Z,11.73
2023-01-19T13:44:54.947Z,11.25
2023-01-19T13:45:59.283Z,11.10
2023-01-19T13:47:05.044Z,10.98
2023-01-19T13:48:16.196Z,10.55
2023-01-19T13:49:34.217Z,9.27
2023-01-19T13:50:39.565Z,10.20
2023-01-19T13:51:42.597Z,9.75
2023-01-19T13:52:46.123Z,10.05
2023-01-19T13:53:57.175Z,10.38
2023-01-19T13:55:03.521Z,9.85
2023-01-19T13:56:22.252Z,10.23
2023-01-19T13:57:26.261Z,8.98
2023-01-19T13:58:30.546Z,10.93
2023-01-19T13:59:33.567Z,9.98
2023-01-19T14:00:36.339Z,9.85
2023-01-19T14:01:45.373Z,9.20
2023-01-19T14:03:18.168Z,9.70
2023-01-19T14:04:34.327Z,10.05
2023-01-19T14:05:42.808Z,9.63
2023-01-19T14:06:48.944Z,9.10
2023-01-19T14:08:05.685Z,9.93
2023-01-19T14:09:18.136Z,9.00
2023-01-19T14:10:24.300Z,8.90
2023-01-19T14:11:27.392Z,9.18
2023-01-19T14:12:30.366Z,8.40
2023-01-19T14:13:40.736Z,9.98
2023-01-19T14:14:49.741Z,9.23
2023-01-19T14:15:55.850Z,9.05
2023-01-19T14:16:59.849Z,10.00
2023-01-19T14:18:34.056Z,9.23
2023-01-19T14:19:55.563Z,9.48
2023-01-19T14:21:06.412Z,8.73
2023-01-19T14:22:09.334Z,8.93
2023-01-19T14:23:36.977Z,9.57
2023-01-19T14:24:39.869Z,9.52
2023-01-19T14:25:45.144Z,9.35
2023-01-19T14:26:54.054Z,8.80
2023-01-19T14:28:31.534Z,8.27
2023-01-19T14:29:36.363Z,8.02
2023-01-19T14:30:39.288Z,9.95
2023-01-19T14:32:16.869Z,8.48
2023-01-19T14:33:43.825Z,8.35
2023-01-19T14:35:12.684Z,9.25
2023-01-19T14:36:29.976Z,9.25
2023-01-19T14:37:36.325Z,8.73
2023-01-19T14:38:48.261Z,8.68
2023-01-19T14:40:15.972Z,9.05
2023-01-19T14:41:44.424Z,9.13
2023-01-19T14:43:00.281Z,8.85
2023-01-19T14:44:07.692Z,8.88
2023-01-19T14:45:30.732Z,9.30
2023-01-19T14:46:34.368Z,8.57
2023-01-19T14:47:41.566Z,8.45
2023-01-19T14:48:49.601Z,9.57
2023-01-19T14:49:55.481Z,9.68
2023-01-19T14:51:05.028Z,9.88
2023-01-19T14:52:21.792Z,10.68
2023-01-19T14:53:25.928Z,9.50
2023-01-19T14:54:35.509Z,10.13
2023-01-19T14:55:50.876Z,9.90
2023-01-19T14:56:54.385Z,9.52
2023-01-19T14:57:57.656Z,9.95
2023-01-19T14:59:02.434Z,9.30